LNI246 WIPP-WIDD
Flight info
| Callsign | LNI246 |
|---|---|
| Flight time | N/A |
| Altitude | 34000 |
| Route | IGUTU1Q IGUTU IGUTU1P |
| Aircraft | B738/M-SDE2E3FGHIRWXY/LB1 |
Departure
| Time | 2026-04-21 04:51 |
|---|---|
| Airport | Sultan Mahmud Badaruddin II Airport (WIPP) |
Arrival
| Time | N/A |
|---|---|
| Airport | Hang Nadim International Airport (WIDD) |
| Time | Latitude | Longitude | Altitude | Speed | Heading |
|---|---|---|---|---|---|
| 2026-04-21 04:35 | -2.89637 | 104.70498 | 46 ft | 0 kts | 22° |
| 2026-04-21 04:38 | -2.89649 | 104.70493 | 46 ft | 2 kts | 22° |
| 2026-04-21 04:38 | -2.89663 | 104.70486 | 46 ft | 2 kts | 22° |
| 2026-04-21 04:39 | -2.89677 | 104.70481 | 46 ft | 2 kts | 22° |
| 2026-04-21 04:39 | -2.89691 | 104.70475 | 46 ft | 2 kts | 22° |
| 2026-04-21 04:39 | -2.89706 | 104.70469 | 46 ft | 2 kts | 22° |
| 2026-04-21 04:39 | -2.89719 | 104.70469 | 46 ft | 1 kts | 323° |
| 2026-04-21 04:40 | -2.89726 | 104.70480 | 46 ft | 2 kts | 285° |
| 2026-04-21 04:40 | -2.89731 | 104.70495 | 46 ft | 2 kts | 296° |
| 2026-04-21 04:40 | -2.89735 | 104.70501 | 46 ft | 0 kts | 294° |
| 2026-04-21 04:44 | -2.89730 | 104.70490 | 46 ft | 4 kts | 294° |
| 2026-04-21 04:44 | -2.89711 | 104.70447 | 45 ft | 9 kts | 293° |
| 2026-04-21 04:45 | -2.89678 | 104.70367 | 44 ft | 13 kts | 293° |
| 2026-04-21 04:45 | -2.89647 | 104.70274 | 42 ft | 14 kts | 260° |
| 2026-04-21 04:45 | -2.89719 | 104.70212 | 41 ft | 13 kts | 230° |
| 2026-04-21 04:45 | -2.89710 | 104.70129 | 41 ft | 12 kts | 293° |
| 2026-04-21 04:46 | -2.89675 | 104.70046 | 40 ft | 12 kts | 292° |
| 2026-04-21 04:46 | -2.89641 | 104.69965 | 40 ft | 12 kts | 292° |
| 2026-04-21 04:46 | -2.89610 | 104.69891 | 41 ft | 10 kts | 292° |
| 2026-04-21 04:46 | -2.89580 | 104.69820 | 42 ft | 12 kts | 293° |
| 2026-04-21 04:47 | -2.89546 | 104.69741 | 43 ft | 15 kts | 292° |
| 2026-04-21 04:47 | -2.89501 | 104.69634 | 43 ft | 18 kts | 292° |
| 2026-04-21 04:47 | -2.89445 | 104.69502 | 43 ft | 22 kts | 293° |
| 2026-04-21 04:47 | -2.89386 | 104.69362 | 46 ft | 24 kts | 292° |
| 2026-04-21 04:48 | -2.89325 | 104.69209 | 51 ft | 20 kts | 294° |
| 2026-04-21 04:48 | -2.89272 | 104.69090 | 54 ft | 15 kts | 289° |
| 2026-04-21 04:48 | -2.89279 | 104.69020 | 55 ft | 7 kts | 230° |
| 2026-04-21 04:48 | -2.89326 | 104.68991 | 56 ft | 9 kts | 205° |
| 2026-04-21 04:49 | -2.89375 | 104.68948 | 58 ft | 10 kts | 255° |
| 2026-04-21 04:49 | -2.89359 | 104.68874 | 61 ft | 11 kts | 294° |
| 2026-04-21 04:49 | -2.89323 | 104.68790 | 62 ft | 15 kts | 292° |
| 2026-04-21 04:49 | -2.89279 | 104.68679 | 62 ft | 19 kts | 287° |
| 2026-04-21 04:50 | -2.89262 | 104.68574 | 62 ft | 10 kts | 285° |
| 2026-04-21 04:50 | -2.89238 | 104.68582 | 62 ft | 7 kts | 105° |
| 2026-04-21 04:50 | -2.89257 | 104.68629 | 62 ft | 8 kts | 112° |
| 2026-04-21 04:50 | -2.89356 | 104.68862 | 61 ft | 78 kts | 112° |
| 2026-04-21 04:51 | -2.89677 | 104.69630 | 44 ft | 157 kts | 114° |
| 2026-04-21 04:51 | -2.90166 | 104.70787 | 362 ft | 194 kts | 112° |
| 2026-04-21 04:51 | -2.90636 | 104.72049 | 1263 ft | 199 kts | 108° |
| 2026-04-21 04:51 | -2.91037 | 104.73379 | 2003 ft | 205 kts | 106° |
| 2026-04-21 04:52 | -2.91448 | 104.74766 | 2535 ft | 217 kts | 106° |
| 2026-04-21 04:52 | -2.91922 | 104.76282 | 2979 ft | 239 kts | 107° |
| 2026-04-21 04:52 | -2.92440 | 104.77882 | 3632 ft | 251 kts | 107° |
| 2026-04-21 04:52 | -2.92898 | 104.79595 | 4309 ft | 261 kts | 98° |
| 2026-04-21 04:53 | -2.92841 | 104.81421 | 5031 ft | 269 kts | 76° |
| 2026-04-21 04:53 | -2.92091 | 104.83124 | 5869 ft | 272 kts | 57° |
| 2026-04-21 04:53 | -2.90904 | 104.84598 | 6681 ft | 276 kts | 45° |
| 2026-04-21 04:53 | -2.89326 | 104.85706 | 7437 ft | 282 kts | 24° |
| 2026-04-21 04:54 | -2.87466 | 104.86125 | 8207 ft | 287 kts | 3° |
| 2026-04-21 04:54 | -2.85526 | 104.86098 | 8979 ft | 290 kts | 359° |
| 2026-04-21 04:54 | -2.83514 | 104.86025 | 9735 ft | 293 kts | 359° |
| 2026-04-21 04:54 | -2.81481 | 104.85963 | 10438 ft | 299 kts | 360° |
| 2026-04-21 04:55 | -2.79367 | 104.85825 | 10902 ft | 314 kts | 353° |
| 2026-04-21 04:55 | -2.77262 | 104.85182 | 11345 ft | 331 kts | 333° |
| 2026-04-21 04:55 | -2.75405 | 104.83779 | 11813 ft | 345 kts | 317° |
| 2026-04-21 04:55 | -2.73768 | 104.82133 | 12415 ft | 353 kts | 314° |
| 2026-04-21 04:56 | -2.72134 | 104.80393 | 13099 ft | 358 kts | 314° |
| 2026-04-21 04:56 | -2.70547 | 104.78709 | 13777 ft | 362 kts | 315° |
| 2026-04-21 04:56 | -2.68824 | 104.76921 | 14487 ft | 366 kts | 315° |
| 2026-04-21 04:56 | -2.67027 | 104.75095 | 15237 ft | 369 kts | 316° |
| 2026-04-21 04:57 | -2.65213 | 104.73278 | 15944 ft | 373 kts | 316° |
| 2026-04-21 04:57 | -2.63373 | 104.71421 | 16619 ft | 378 kts | 314° |
| 2026-04-21 04:57 | -2.61628 | 104.69426 | 17278 ft | 383 kts | 309° |
| 2026-04-21 04:57 | -2.60076 | 104.67281 | 17938 ft | 387 kts | 304° |
| 2026-04-21 04:58 | -2.58610 | 104.64980 | 18574 ft | 391 kts | 302° |
| 2026-04-21 04:58 | -2.57163 | 104.62688 | 19197 ft | 393 kts | 306° |
| 2026-04-21 04:58 | -2.55437 | 104.60583 | 19822 ft | 394 kts | 315° |
| 2026-04-21 04:58 | -2.53327 | 104.58800 | 20436 ft | 396 kts | 326° |
| 2026-04-21 04:59 | -2.50937 | 104.57443 | 21029 ft | 396 kts | 336° |
| 2026-04-21 04:59 | -2.48361 | 104.56546 | 21558 ft | 399 kts | 347° |
| 2026-04-21 04:59 | -2.45601 | 104.56126 | 22136 ft | 399 kts | 357° |
| 2026-04-21 04:59 | -2.42805 | 104.56165 | 22651 ft | 403 kts | 4° |
| 2026-04-21 05:00 | -2.40003 | 104.56406 | 23154 ft | 406 kts | 6° |
| 2026-04-21 05:00 | -2.37170 | 104.56657 | 23656 ft | 409 kts | 4° |
| 2026-04-21 05:00 | -2.31437 | 104.56808 | 24606 ft | 417 kts | 359° |
| 2026-04-21 05:01 | -2.28521 | 104.56712 | 25191 ft | 417 kts | 358° |
| 2026-04-21 05:01 | -2.25596 | 104.56550 | 25635 ft | 421 kts | 356° |
| 2026-04-21 05:01 | -2.22687 | 104.56347 | 26076 ft | 424 kts | 356° |
| 2026-04-21 05:01 | -2.19714 | 104.56114 | 26551 ft | 426 kts | 356° |
| 2026-04-21 05:02 | -2.16749 | 104.55869 | 26972 ft | 430 kts | 355° |
| 2026-04-21 05:02 | -2.13741 | 104.55614 | 27400 ft | 433 kts | 355° |
| 2026-04-21 05:02 | -2.10728 | 104.55353 | 27788 ft | 436 kts | 355° |
| 2026-04-21 05:02 | -2.07677 | 104.55090 | 28209 ft | 439 kts | 355° |
| 2026-04-21 05:03 | -2.04636 | 104.54826 | 28609 ft | 442 kts | 355° |
| 2026-04-21 05:03 | -2.01550 | 104.54559 | 29072 ft | 443 kts | 355° |
| 2026-04-21 05:03 | -1.98487 | 104.54295 | 29429 ft | 447 kts | 355° |
| 2026-04-21 05:03 | -1.95370 | 104.54025 | 29891 ft | 448 kts | 355° |
| 2026-04-21 05:04 | -1.92217 | 104.53754 | 30281 ft | 451 kts | 355° |
| 2026-04-21 05:04 | -1.89109 | 104.53486 | 30875 ft | 448 kts | 355° |
| 2026-04-21 05:04 | -1.86019 | 104.53219 | 31496 ft | 445 kts | 355° |
| 2026-04-21 05:04 | -1.82935 | 104.52952 | 32069 ft | 442 kts | 355° |
| 2026-04-21 05:05 | -1.79887 | 104.52689 | 32742 ft | 437 kts | 355° |
| 2026-04-21 05:05 | -1.76876 | 104.52428 | 33338 ft | 435 kts | 355° |
| 2026-04-21 05:05 | -1.73860 | 104.52168 | 33873 ft | 433 kts | 355° |
| 2026-04-21 05:05 | -1.70819 | 104.51907 | 33952 ft | 439 kts | 355° |
| 2026-04-21 05:06 | -1.64729 | 104.51384 | 33948 ft | 438 kts | 355° |
| 2026-04-21 05:06 | -1.58627 | 104.50861 | 33949 ft | 438 kts | 355° |
| 2026-04-21 05:07 | -1.52506 | 104.50336 | 33947 ft | 438 kts | 355° |
| 2026-04-21 05:07 | -1.46447 | 104.49815 | 33948 ft | 438 kts | 355° |
| 2026-04-21 05:08 | -1.40335 | 104.49289 | 33952 ft | 438 kts | 355° |
| 2026-04-21 05:08 | -1.34246 | 104.48766 | 33950 ft | 437 kts | 355° |
| 2026-04-21 05:09 | -1.28144 | 104.48241 | 33947 ft | 439 kts | 355° |
| 2026-04-21 05:09 | -1.22068 | 104.47719 | 33945 ft | 437 kts | 355° |
| 2026-04-21 05:10 | -1.15967 | 104.47195 | 33942 ft | 439 kts | 355° |
| 2026-04-21 05:10 | -1.09877 | 104.46672 | 33943 ft | 438 kts | 355° |
| 2026-04-21 05:11 | -1.03793 | 104.46149 | 33943 ft | 438 kts | 355° |
| 2026-04-21 05:11 | -0.97681 | 104.45623 | 33945 ft | 438 kts | 355° |
| 2026-04-21 05:12 | -0.91640 | 104.45104 | 33947 ft | 437 kts | 355° |
| 2026-04-21 05:12 | -0.85501 | 104.44575 | 33941 ft | 439 kts | 355° |
| 2026-04-21 05:13 | -0.79403 | 104.44055 | 33947 ft | 438 kts | 355° |
| 2026-04-21 05:13 | -0.73286 | 104.43520 | 33944 ft | 439 kts | 355° |
| 2026-04-21 05:14 | -0.67202 | 104.42992 | 33945 ft | 439 kts | 355° |
| 2026-04-21 05:14 | -0.61103 | 104.42471 | 33948 ft | 439 kts | 355° |
| 2026-04-21 05:15 | -0.58029 | 104.42209 | 33815 ft | 437 kts | 355° |
| 2026-04-21 05:15 | -0.54998 | 104.41919 | 33348 ft | 433 kts | 353° |
| 2026-04-21 05:15 | -0.52015 | 104.41472 | 32744 ft | 431 kts | 349° |
| 2026-04-21 05:15 | -0.49111 | 104.40768 | 32260 ft | 427 kts | 345° |
| 2026-04-21 05:16 | -0.46275 | 104.39902 | 31775 ft | 424 kts | 342° |
| 2026-04-21 05:16 | -0.43500 | 104.38963 | 31237 ft | 422 kts | 341° |
| 2026-04-21 05:16 | -0.40725 | 104.37985 | 30693 ft | 420 kts | 341° |
| 2026-04-21 05:16 | -0.37975 | 104.37006 | 30143 ft | 418 kts | 341° |
| 2026-04-21 05:17 | -0.35220 | 104.36028 | 29596 ft | 416 kts | 341° |
| 2026-04-21 05:17 | -0.32495 | 104.35067 | 29044 ft | 415 kts | 341° |
| 2026-04-21 05:17 | -0.29792 | 104.34121 | 28500 ft | 413 kts | 341° |
| 2026-04-21 05:17 | -0.27072 | 104.33177 | 27964 ft | 411 kts | 341° |
| 2026-04-21 05:18 | -0.24372 | 104.32249 | 27429 ft | 410 kts | 342° |
| 2026-04-21 05:18 | -0.21640 | 104.31400 | 26880 ft | 408 kts | 346° |
| 2026-04-21 05:18 | -0.18912 | 104.30745 | 26337 ft | 406 kts | 348° |
| 2026-04-21 05:18 | -0.16115 | 104.30187 | 25781 ft | 404 kts | 350° |
| 2026-04-21 05:19 | -0.13355 | 104.29675 | 25235 ft | 403 kts | 350° |
| 2026-04-21 05:19 | -0.10585 | 104.29174 | 24695 ft | 401 kts | 350° |
| 2026-04-21 05:19 | -0.07876 | 104.28685 | 24162 ft | 399 kts | 350° |
| 2026-04-21 05:19 | -0.05155 | 104.28188 | 23624 ft | 397 kts | 350° |
| 2026-04-21 05:20 | -0.02439 | 104.27685 | 23096 ft | 395 kts | 350° |
| 2026-04-21 05:20 | 0.00246 | 104.27181 | 22567 ft | 394 kts | 350° |
| 2026-04-21 05:20 | 0.02957 | 104.26667 | 22032 ft | 392 kts | 349° |
| 2026-04-21 05:20 | 0.05643 | 104.26155 | 21502 ft | 391 kts | 350° |
| 2026-04-21 05:21 | 0.08323 | 104.25647 | 20970 ft | 389 kts | 349° |
| 2026-04-21 05:21 | 0.10959 | 104.25140 | 20441 ft | 388 kts | 349° |
| 2026-04-21 05:21 | 0.13589 | 104.24633 | 19894 ft | 378 kts | 349° |
| 2026-04-21 05:21 | 0.16135 | 104.24139 | 19398 ft | 366 kts | 349° |
| 2026-04-21 05:22 | 0.18612 | 104.23660 | 18897 ft | 354 kts | 350° |
| 2026-04-21 05:22 | 0.20989 | 104.23199 | 18410 ft | 344 kts | 350° |
| 2026-04-21 05:22 | 0.23289 | 104.22755 | 17942 ft | 334 kts | 350° |
| 2026-04-21 05:22 | 0.25584 | 104.22311 | 17485 ft | 339 kts | 350° |
| 2026-04-21 05:23 | 0.27946 | 104.21858 | 16998 ft | 351 kts | 350° |
| 2026-04-21 05:23 | 0.30339 | 104.21399 | 16508 ft | 344 kts | 350° |
| 2026-04-21 05:23 | 0.32671 | 104.20946 | 16028 ft | 333 kts | 350° |
| 2026-04-21 05:23 | 0.34924 | 104.20513 | 15558 ft | 323 kts | 351° |
| 2026-04-21 05:24 | 0.37091 | 104.20119 | 15113 ft | 315 kts | 351° |
| 2026-04-21 05:24 | 0.39303 | 104.19709 | 14668 ft | 326 kts | 349° |
| 2026-04-21 05:24 | 0.41544 | 104.19267 | 14207 ft | 330 kts | 349° |
| 2026-04-21 05:24 | 0.43762 | 104.18831 | 13748 ft | 320 kts | 348° |
| 2026-04-21 05:25 | 0.45914 | 104.18403 | 13299 ft | 310 kts | 349° |
| 2026-04-21 05:25 | 0.48004 | 104.17996 | 12864 ft | 301 kts | 349° |
| 2026-04-21 05:25 | 0.50111 | 104.17588 | 12499 ft | 314 kts | 349° |
| 2026-04-21 05:25 | 0.52290 | 104.17168 | 12095 ft | 320 kts | 349° |
| 2026-04-21 05:26 | 0.54491 | 104.16745 | 11593 ft | 322 kts | 349° |
| 2026-04-21 05:26 | 0.56684 | 104.16326 | 11142 ft | 321 kts | 349° |
| 2026-04-21 05:26 | 0.58872 | 104.15913 | 10693 ft | 320 kts | 349° |
| 2026-04-21 05:26 | 0.61059 | 104.15502 | 10296 ft | 317 kts | 349° |
| 2026-04-21 05:27 | 0.63201 | 104.15100 | 10116 ft | 307 kts | 348° |
| 2026-04-21 05:27 | 0.65264 | 104.14709 | 9931 ft | 299 kts | 349° |
| 2026-04-21 05:27 | 0.67299 | 104.14319 | 9554 ft | 298 kts | 349° |
| 2026-04-21 05:27 | 0.69335 | 104.13937 | 9176 ft | 297 kts | 349° |
| 2026-04-21 05:28 | 0.71398 | 104.13578 | 8785 ft | 298 kts | 350° |
| 2026-04-21 05:28 | 0.73450 | 104.13215 | 8418 ft | 297 kts | 350° |
| 2026-04-21 05:28 | 0.75482 | 104.12863 | 8044 ft | 297 kts | 351° |
| 2026-04-21 05:28 | 0.77546 | 104.12545 | 7655 ft | 297 kts | 353° |
| 2026-04-21 05:29 | 0.79609 | 104.12550 | 7289 ft | 296 kts | 7° |
| 2026-04-21 05:29 | 0.81601 | 104.13024 | 6923 ft | 295 kts | 17° |
| 2026-04-21 05:29 | 0.83554 | 104.13687 | 6548 ft | 295 kts | 19° |
| 2026-04-21 05:29 | 0.85495 | 104.14352 | 6176 ft | 294 kts | 18° |
| 2026-04-21 05:30 | 0.87417 | 104.14962 | 5815 ft | 292 kts | 17° |
| 2026-04-21 05:30 | 0.89395 | 104.15551 | 5438 ft | 291 kts | 16° |
| 2026-04-21 05:30 | 0.91327 | 104.16110 | 5074 ft | 289 kts | 16° |
| 2026-04-21 05:30 | 0.93233 | 104.16653 | 4948 ft | 277 kts | 15° |
| 2026-04-21 05:31 | 0.95040 | 104.17169 | 4955 ft | 262 kts | 15° |
| 2026-04-21 05:31 | 0.96761 | 104.17664 | 4961 ft | 256 kts | 15° |
| 2026-04-21 05:31 | 0.98505 | 104.18165 | 4954 ft | 255 kts | 15° |
| 2026-04-21 05:31 | 1.00207 | 104.18656 | 4958 ft | 258 kts | 16° |
| 2026-04-21 05:32 | 1.01955 | 104.19159 | 4956 ft | 254 kts | 14° |
| 2026-04-21 05:32 | 1.03672 | 104.19665 | 4949 ft | 256 kts | 17° |
| 2026-04-21 05:32 | 1.05303 | 104.20345 | 4958 ft | 256 kts | 31° |
| 2026-04-21 05:32 | 1.06731 | 104.21448 | 4967 ft | 258 kts | 41° |
| 2026-04-21 05:33 | 1.08056 | 104.22680 | 4738 ft | 261 kts | 42° |
| 2026-04-21 05:33 | 1.09403 | 104.23908 | 4384 ft | 262 kts | 40° |
| 2026-04-21 05:33 | 1.10773 | 104.25107 | 4036 ft | 261 kts | 39° |
| 2026-04-21 05:33 | 1.12120 | 104.26258 | 3733 ft | 254 kts | 39° |
| 2026-04-21 05:34 | 1.13480 | 104.27415 | 3407 ft | 253 kts | 39° |
| 2026-04-21 05:34 | 1.14798 | 104.28540 | 3235 ft | 245 kts | 39° |
| 2026-04-21 05:34 | 1.16080 | 104.29634 | 3166 ft | 238 kts | 39° |
| 2026-04-21 05:34 | 1.17341 | 104.30663 | 3091 ft | 230 kts | 33° |
| 2026-04-21 05:35 | 1.18744 | 104.31343 | 3012 ft | 221 kts | 8° |
| 2026-04-21 05:35 | 1.20237 | 104.31194 | 2974 ft | 214 kts | 337° |
| 2026-04-21 05:35 | 1.21472 | 104.30399 | 2949 ft | 212 kts | 317° |
| 2026-04-21 05:35 | 1.22498 | 104.29321 | 2949 ft | 213 kts | 313° |
| 2026-04-21 05:36 | 1.23473 | 104.28201 | 2820 ft | 214 kts | 312° |
| 2026-04-21 05:36 | 1.24456 | 104.27076 | 2590 ft | 214 kts | 311° |
| 2026-04-21 05:36 | 1.25293 | 104.25859 | 2484 ft | 213 kts | 294° |
| 2026-04-21 05:36 | 1.25479 | 104.24411 | 2453 ft | 214 kts | 259° |
| 2026-04-21 05:37 | 1.24821 | 104.23100 | 2339 ft | 208 kts | 231° |
| 2026-04-21 05:37 | 1.23767 | 104.22131 | 2162 ft | 203 kts | 222° |
| 2026-04-21 05:37 | 1.22712 | 104.21224 | 2011 ft | 196 kts | 223° |
| 2026-04-21 05:37 | 1.21702 | 104.20328 | 1879 ft | 188 kts | 223° |
| 2026-04-21 05:38 | 1.20749 | 104.19482 | 1806 ft | 178 kts | 223° |
| 2026-04-21 05:38 | 1.19811 | 104.18652 | 1839 ft | 179 kts | 223° |
| 2026-04-21 05:38 | 1.18886 | 104.17834 | 1836 ft | 178 kts | 224° |
| 2026-04-21 05:38 | 1.17952 | 104.17009 | 1835 ft | 178 kts | 223° |
| 2026-04-21 05:39 | 1.17017 | 104.16185 | 1833 ft | 178 kts | 224° |
| 2026-04-21 05:39 | 1.16083 | 104.15366 | 1832 ft | 178 kts | 221° |
| 2026-04-21 05:39 | 1.15032 | 104.14683 | 1836 ft | 181 kts | 206° |
| 2026-04-21 05:39 | 1.13836 | 104.14286 | 1836 ft | 181 kts | 191° |
| 2026-04-21 05:40 | 1.12588 | 104.14212 | 1823 ft | 183 kts | 175° |
| 2026-04-21 05:40 | 1.11299 | 104.14470 | 1784 ft | 191 kts | 160° |
| 2026-04-21 05:40 | 1.10073 | 104.15062 | 1893 ft | 196 kts | 145° |
| 2026-04-21 05:40 | 1.09016 | 104.15946 | 2023 ft | 197 kts | 130° |
| 2026-04-21 05:41 | 1.08211 | 104.17049 | 2168 ft | 197 kts | 116° |
| 2026-04-21 05:41 | 1.07693 | 104.18327 | 2309 ft | 197 kts | 102° |
| 2026-04-21 05:41 | 1.07250 | 104.19757 | 2304 ft | 243 kts | 117° |
| 2026-04-21 05:41 | 1.06004 | 104.21018 | 2290 ft | 265 kts | 149° |
| 2026-04-21 05:42 | 1.04271 | 104.21693 | 2285 ft | 272 kts | 168° |
| 2026-04-21 05:42 | 1.02397 | 104.21629 | 2287 ft | 267 kts | 195° |
| 2026-04-21 05:42 | 1.00762 | 104.20886 | 2282 ft | 250 kts | 218° |
| 2026-04-21 05:42 | 0.99621 | 104.19606 | 2285 ft | 243 kts | 242° |
| 2026-04-21 05:43 | 0.99005 | 104.18047 | 2286 ft | 242 kts | 258° |
| 2026-04-21 05:43 | 0.98874 | 104.16401 | 2284 ft | 240 kts | 278° |
| 2026-04-21 05:43 | 0.99409 | 104.14823 | 2286 ft | 237 kts | 301° |
| 2026-04-21 05:43 | 1.00373 | 104.13508 | 2286 ft | 238 kts | 314° |
| 2026-04-21 05:44 | 1.01708 | 104.12531 | 2284 ft | 236 kts | 337° |
| 2026-04-21 05:44 | 1.03310 | 104.12187 | 2286 ft | 235 kts | 358° |
| 2026-04-21 05:44 | 1.04919 | 104.12320 | 2284 ft | 224 kts | 11° |
| 2026-04-21 05:44 | 1.06374 | 104.12780 | 2283 ft | 210 kts | 24° |
| 2026-04-21 05:45 | 1.07593 | 104.13505 | 2282 ft | 198 kts | 37° |
| 2026-04-21 05:45 | 1.08598 | 104.14393 | 2285 ft | 191 kts | 42° |
| 2026-04-21 05:45 | 1.09558 | 104.15315 | 2287 ft | 192 kts | 42° |
| 2026-04-21 05:45 | 1.10534 | 104.16256 | 2285 ft | 191 kts | 42° |
| 2026-04-21 05:46 | 1.11490 | 104.17181 | 2286 ft | 192 kts | 42° |
| 2026-04-21 05:46 | 1.12393 | 104.18162 | 2286 ft | 193 kts | 52° |
| 2026-04-21 05:46 | 1.13147 | 104.19283 | 2285 ft | 193 kts | 56° |
| 2026-04-21 05:46 | 1.13869 | 104.20439 | 2285 ft | 193 kts | 56° |
| 2026-04-21 05:47 | 1.14579 | 104.21580 | 2285 ft | 194 kts | 56° |
| 2026-04-21 05:47 | 1.15293 | 104.22719 | 2254 ft | 192 kts | 56° |
| 2026-04-21 05:47 | 1.16011 | 104.23860 | 2027 ft | 196 kts | 56° |
| 2026-04-21 05:47 | 1.16738 | 104.25008 | 1908 ft | 191 kts | 53° |
| 2026-04-21 05:48 | 1.17615 | 104.25999 | 1772 ft | 191 kts | 38° |
| 2026-04-21 05:48 | 1.18644 | 104.26830 | 1661 ft | 189 kts | 39° |
| 2026-04-21 05:48 | 1.19661 | 104.27743 | 1644 ft | 200 kts | 41° |
| 2026-04-21 05:48 | 1.20758 | 104.28561 | 1635 ft | 189 kts | 18° |
| 2026-04-21 05:49 | 1.21983 | 104.28564 | 1643 ft | 172 kts | 339° |
| 2026-04-21 05:49 | 1.22994 | 104.27965 | 1638 ft | 167 kts | 320° |
| 2026-04-21 05:49 | 1.23839 | 104.27139 | 1645 ft | 169 kts | 315° |
| 2026-04-21 05:49 | 1.24675 | 104.26315 | 1642 ft | 168 kts | 315° |
| 2026-04-21 05:50 | 1.25331 | 104.25345 | 1640 ft | 171 kts | 289° |
| 2026-04-21 05:50 | 1.25357 | 104.24173 | 1640 ft | 174 kts | 257° |
| 2026-04-21 05:50 | 1.24844 | 104.23074 | 1637 ft | 177 kts | 234° |
| 2026-04-21 05:50 | 1.23951 | 104.22209 | 1642 ft | 179 kts | 220° |
| 2026-04-21 05:51 | 1.22984 | 104.21425 | 1638 ft | 179 kts | 221° |
| 2026-04-21 05:51 | 1.22045 | 104.20615 | 1635 ft | 178 kts | 223° |
| 2026-04-21 05:51 | 1.21128 | 104.19804 | 1638 ft | 171 kts | 224° |
| 2026-04-21 05:51 | 1.20241 | 104.19020 | 1641 ft | 168 kts | 224° |
| 2026-04-21 05:52 | 1.19364 | 104.18244 | 1645 ft | 168 kts | 223° |
| 2026-04-21 05:52 | 1.18475 | 104.17461 | 1495 ft | 165 kts | 223° |
| 2026-04-21 05:52 | 1.17637 | 104.16725 | 1169 ft | 159 kts | 223° |
| 2026-04-21 05:52 | 1.16828 | 104.16011 | 1169 ft | 153 kts | 223° |
| 2026-04-21 05:53 | 1.16015 | 104.15297 | 1205 ft | 156 kts | 223° |
| 2026-04-21 05:53 | 1.15196 | 104.14579 | 1173 ft | 159 kts | 222° |
| 2026-04-21 05:53 | 1.14311 | 104.13800 | 1212 ft | 179 kts | 222° |
| 2026-04-21 05:53 | 1.13352 | 104.12952 | 1207 ft | 185 kts | 222° |
| 2026-04-21 05:54 | 1.12388 | 104.12090 | 1231 ft | 187 kts | 223° |
| 2026-04-21 05:54 | 1.11411 | 104.11207 | 1262 ft | 186 kts | 223° |
| 2026-04-21 05:54 | 1.10428 | 104.10327 | 1268 ft | 188 kts | 223° |
| 2026-04-21 05:54 | 1.09444 | 104.09452 | 1261 ft | 188 kts | 221° |
| 2026-04-21 05:55 | 1.08313 | 104.08807 | 1259 ft | 187 kts | 194° |
| 2026-04-21 05:55 | 1.07022 | 104.08792 | 1266 ft | 189 kts | 170° |
| 2026-04-21 05:55 | 1.05754 | 104.09139 | 1255 ft | 188 kts | 148° |
| 2026-04-21 05:55 | 1.04866 | 104.10182 | 1280 ft | 213 kts | 108° |
| 2026-04-21 05:56 | 1.04686 | 104.11647 | 1634 ft | 216 kts | 86° |
| 2026-04-21 05:56 | 1.04741 | 104.13175 | 2273 ft | 225 kts | 87° |
| 2026-04-21 05:56 | 1.04761 | 104.14755 | 2828 ft | 228 kts | 88° |
| 2026-04-21 05:56 | 1.04759 | 104.16344 | 2948 ft | 230 kts | 88° |
| 2026-04-21 05:57 | 1.04754 | 104.17939 | 2820 ft | 230 kts | 88° |
| 2026-04-21 05:57 | 1.04875 | 104.19518 | 2639 ft | 228 kts | 74° |
| 2026-04-21 05:57 | 1.05591 | 104.20889 | 2453 ft | 220 kts | 43° |
| 2026-04-21 05:57 | 1.06766 | 104.21860 | 2285 ft | 216 kts | 35° |
| 2026-04-21 05:58 | 1.07957 | 104.22757 | 2109 ft | 215 kts | 37° |
| 2026-04-21 05:58 | 1.09122 | 104.23706 | 1952 ft | 213 kts | 39° |
| 2026-04-21 05:58 | 1.10255 | 104.24674 | 1956 ft | 216 kts | 39° |
| 2026-04-21 05:58 | 1.11419 | 104.25669 | 1953 ft | 216 kts | 39° |
| 2026-04-21 05:59 | 1.12558 | 104.26640 | 1958 ft | 216 kts | 39° |
| 2026-04-21 05:59 | 1.13709 | 104.27620 | 1958 ft | 217 kts | 39° |
| 2026-04-21 05:59 | 1.14867 | 104.28609 | 1954 ft | 216 kts | 39° |
| 2026-04-21 06:00 | 1.17159 | 104.30554 | 1955 ft | 216 kts | 37° |
| 2026-04-21 06:00 | 1.18457 | 104.31318 | 1950 ft | 214 kts | 15° |
| 2026-04-21 06:00 | 1.19934 | 104.31327 | 1958 ft | 215 kts | 342° |
| 2026-04-21 06:00 | 1.21244 | 104.30611 | 2035 ft | 214 kts | 320° |
| 2026-04-21 06:01 | 1.22300 | 104.29542 | 2219 ft | 217 kts | 312° |
| 2026-04-21 06:01 | 1.23290 | 104.28403 | 2393 ft | 216 kts | 312° |